METAR Data
IDs: Format: Raw Decoded Include TAF

Data at: 0841 UTC 20 Sep 2018

PAKK 200756Z AUTO 00000KT 10SM OVC045 06/04 A3002 RMK AO2 SLP180 T00560044
PAKK 200656Z AUTO 34004KT 10SM FEW035 OVC047 07/04 A3002 RMK AO2 SLP179 T00720044
PAKK 200556Z AUTO 32005KT 10SM BKN045 07/04 A3002 RMK AO2 SLP179 60001 T00670044 10106 20067 53002
PAKK 200456Z AUTO 30004KT 10SM OVC055 07/05 A3002 RMK AO2 SLP179 T00720050
PAKK 200356Z AUTO 28004KT 10SM CLR 08/06 A3001 RMK AO2 SLP177 T00830061
PAKK 200256Z AUTO 00000KT 10SM FEW018 BKN030 OVC035 09/07 A3001 RMK AO2 SLP177 P0001 60001 T00940067 53001
PAKK 200245Z AUTO 25004KT 10SM BKN020 BKN028 OVC055 10/06 A3001 RMK AO2 P0001
PAKK 200156Z AUTO 18005KT 10SM FEW017 BKN046 10/07 A3001 RMK AO2 SLP175 T01000067
PAKK 200056Z AUTO 00000KT 10SM FEW015 OVC044 10/07 A3001 RMK AO2 SLP175 T01000072
PAKK 200031Z AUTO 31003KT 10SM SCT015 SCT021 OVC044 09/07 A3001 RMK AO2
PAKK 200018Z AUTO 32005KT 10SM BKN015 BKN021 OVC042 10/07 A3001 RMK AO2
PAKK 192356Z AUTO 28003KT 10SM FEW012 SCT017 BKN042 09/07 A3001 RMK AO2 RAE08 SLP176 P0000 60002 T00940072 10094 20072 56001
PAKK 192318Z AUTO 28003KT 10SM FEW009 BKN042 OVC095 09/08 A3001 RMK AO2 RAE08 P0000
PAKK 192256Z AUTO 28005KT 9SM -RA BKN023 OVC027 08/07 A3001 RMK AO2 RAB53 SLP177 P0000 T00830072
PAKK 192156Z AUTO 31006KT 10SM FEW011 BKN020 OVC025 09/07 A3001 RMK AO2 SLP175 T00890072
PAKK 192056Z AUTO 20003KT 10SM SCT006 OVC017 08/08 A3001 RMK AO2 SLP176 60002 T00830078 56001
PAKK 192054Z AUTO 00000KT 10SM SCT006 OVC017 08/08 A3001 RMK AO2
PAKK 192035Z AUTO 00000KT 10SM BKN006 OVC017 09/08 A3001 RMK AO2 CIG 003V009
PAKK 192025Z AUTO 00000KT 10SM SCT004 BKN017 08/08 A3001 RMK AO2
PAKK 192004Z AUTO 00000KT 10SM FEW002 08/08 A3001 RMK AO2
PAKK 191956Z AUTO 05003KT 10SM BKN002 08/08 A3001 RMK AO2 RAE12 SLP176 P0000 T00780078
PAKK 191856Z AUTO 05004KT 10SM -RA BKN002 OVC065 07/07 A3001 RMK AO2 SLP177 P0002 T00720072
PAKK 191839Z AUTO 04003KT 10SM -RA FEW002 BKN055 OVC075 07/07 A3001 RMK AO2 P0002
PAKK 191756Z AUTO 00000KT 8SM -RA OVC048 08/07 A3002 RMK AO2 SLP181 P0007 60025 T00780072 10078 20067 58008
PAKK 191656Z AUTO 02004KT 8SM RA OVC044 07/07 A3003 RMK AO2 SLP184 P0010 T00720067
PAKK 191634Z AUTO 04003KT 5SM RA BR SCT013 OVC044 07/07 A3004 RMK AO2 P0007
PAKK 191556Z AUTO 00000KT 8SM RA BKN013 OVC022 07/07 A3004 RMK AO2 RAB1457 SLP188 P0004 T00720067
PAKK 191456Z AUTO 00000KT 10SM SCT024 BKN033 OVC047 07/07 A3005 RMK AO2 SLP190 60004 T00720067 56010
PAKK 191443Z AUTO 00000KT 10SM SCT028 OVC034 07/07 A3005 RMK AO2
PAKK 191430Z AUTO 00000KT 10SM BKN028 OVC034 07/07 A3005 RMK AO2
PAKK 191356Z AUTO 33003KT 10SM OVC040 07/07 A3005 RMK AO2 RAE55 SLP191 P0001 T00720067
PAKK 191256Z AUTO 35003KT 10SM -RA OVC038 07/07 A3006 RMK AO2 SLP193 P0003 T00720067
PAKK 191156Z AUTO 29003KT 6SM -RA BR FEW015 BKN035 OVC043 07/07 A3008 RMK AO2 SLP200 P0004 60012 70013 T00720072 10094 20072 58006
PAKK 191135Z AUTO 00000KT 6SM -RA BR BKN029 BKN035 OVC050 08/07 A3009 RMK AO2 P0002
PAKK 191056Z AUTO 25003KT 10SM -RA BKN037 OVC100 07/07 A3009 RMK AO2 RAB56 SLP203 P0000 T00720067
PAKK 191010Z AUTO 28004KT 10SM SCT005 SCT013 OVC080 08/07 A3010 RMK AO2
PAKK 191003Z AUTO 28003KT 10SM SCT007 BKN016 OVC080 08/07 A3010 RMK AO2
PAKK 190956Z AUTO 28004KT 10SM BKN007 OVC013 08/07 A3010 RMK AO2 RAE42 CIG 004V010 SLP206 P0003 T00780072
PAKK 190951Z AUTO VRB05KT 10SM BKN007 OVC013 08/08 A3010 RMK AO2 RAE42 CIG 004V010 P0003
PAKK 190925Z AUTO 00000KT 5SM -RA BR SCT007 OVC013 07/07 A3010 RMK AO2 P0003
PAKK 190916Z AUTO 00000KT 7SM -RA BKN007 OVC013 07/07 A3011 RMK AO2 CIG 005V011 P0002
PAKK 190905Z AUTO 00000KT 5SM RA BR SCT009 BKN013 OVC049 08/07 A3011 RMK AO2 P0002
PAKK 190856Z AUTO 00000KT 8SM -RA SCT013 BKN028 OVC042 08/07 A3011 RMK AO2 SLP212 P0004 60005 T00780072 401220067 58007
PAKK 190832Z AUTO 22003KT 10SM -RA FEW013 SCT020 OVC042 08/07 A3012 RMK AO2 P0003
PAKK 190825Z AUTO 21004KT 9SM -RA SCT013 BKN020 OVC038 08/07 A3012 RMK AO2 P0003
PAKK 190756Z AUTO 19008KT 10SM -RA FEW015 OVC032 09/07 A3013 RMK AO2 SLP215 P0001 T00890072
PAKK 190751Z AUTO 18009KT 10SM -RA SCT015 OVC032 09/07 A3013 RMK AO2 P0001
PAKK 190723Z AUTO 14006KT 9SM RA SCT019 BKN025 OVC043 09/07 A3013 RMK AO2 P0001
PAKK 190656Z AUTO 16008KT 10SM -RA FEW021 BKN048 OVC055 09/07 A3013 RMK AO2 RAB44 SLP219 P0000 T00940067
PAKK 190556Z AUTO 19006KT 10SM FEW046 SCT060 SCT120 09/06 A3014 RMK AO2 SLP221 60000 T00890061 10122 20078 58005
PAKK 190456Z AUTO 19006KT 10SM OVC060 09/07 A3015 RMK AO2 SLP224 T00940067
PAKK 190356Z AUTO 20006KT 10SM OVC050 09/05 A3015 RMK AO2 RAB27E40 SLP225 P0000 T00940050
PAKK 190256Z AUTO 23004KT 10SM OVC060 10/04 A3016 RMK AO2 SLP226 60000 T01000039 58003
PAKK 190156Z AUTO 20006KT 10SM FEW028 SCT032 BKN048 11/06 A3016 RMK AO2 RAB20E31 SLP229 P0000 T01060056
PAKK 190056Z AUTO 21007KT 10SM OVC038 11/04 A3017 RMK AO2 SLP230 T01110039
PAKK 182356Z AUTO 19007KT 10SM FEW045 11/05 A3017 RMK AO2 SLP230 60000 T01060050 10117 20072 58002
PAKK 182256Z AUTO 19007KT 10SM BKN050 10/04 A3017 RMK AO2 SLP230 T01000044
PAKK 182156Z AUTO 19003KT 10SM BKN041 OVC050 10/06 A3017 RMK AO2 RAB2058E28 SLP232 P0000 T01000056
PAKK 182056Z AUTO 00000KT 10SM BKN043 OVC050 09/07 A3017 RMK AO2 SLP232 T00890072 51009